sensor_id;sensor_type;location;lat;lon;timestamp;P1;durP1;ratioP1;P2;durP2;ratioP2
50066;SDS011;35952;52.524;13.340;2022-12-19T00:02:03;33.93;;;18.17;;
50066;SDS011;35952;52.524;13.340;2022-12-19T00:04:29;38.95;;;17.42;;
50066;SDS011;35952;52.524;13.340;2022-12-19T00:06:57;34.07;;;16.13;;
50066;SDS011;35952;52.524;13.340;2022-12-19T00:09:23;33.85;;;19.13;;
50066;SDS011;35952;52.524;13.340;2022-12-19T00:11:49;29.25;;;15.38;;
50066;SDS011;35952;52.524;13.340;2022-12-19T00:14:15;33.63;;;16.43;;
50066;SDS011;35952;52.524;13.340;2022-12-19T00:16:41;30.20;;;15.18;;
50066;SDS011;35952;52.524;13.340;2022-12-19T00:19:08;30.47;;;17.83;;
50066;SDS011;35952;52.524;13.340;2022-12-19T00:21:34;32.10;;;17.30;;
50066;SDS011;35952;52.524;13.340;2022-12-19T00:24:00;32.50;;;16.50;;
50066;SDS011;35952;52.524;13.340;2022-12-19T00:26:32;33.47;;;18.00;;
50066;SDS011;35952;52.524;13.340;2022-12-19T00:29:00;32.25;;;16.30;;
50066;SDS011;35952;52.524;13.340;2022-12-19T00:31:31;34.67;;;18.10;;
50066;SDS011;35952;52.524;13.340;2022-12-19T00:33:58;30.63;;;16.52;;
50066;SDS011;35952;52.524;13.340;2022-12-19T00:36:26;28.92;;;15.80;;
50066;SDS011;35952;52.524;13.340;2022-12-19T00:38:54;31.70;;;14.57;;
50066;SDS011;35952;52.524;13.340;2022-12-19T00:43:54;31.17;;;15.43;;
50066;SDS011;35952;52.524;13.340;2022-12-19T00:46:21;30.65;;;16.38;;
50066;SDS011;35952;52.524;13.340;2022-12-19T00:48:47;28.83;;;15.20;;
50066;SDS011;35952;52.524;13.340;2022-12-19T00:51:17;33.43;;;16.97;;
50066;SDS011;35952;52.524;13.340;2022-12-19T00:53:45;35.25;;;16.80;;
50066;SDS011;35952;52.524;13.340;2022-12-19T00:56:15;30.33;;;15.70;;
50066;SDS011;35952;52.524;13.340;2022-12-19T00:58:43;32.38;;;16.50;;
50066;SDS011;35952;52.524;13.340;2022-12-19T01:01:13;24.53;;;13.03;;
50066;SDS011;35952;52.524;13.340;2022-12-19T01:03:40;27.65;;;15.23;;
50066;SDS011;35952;52.524;13.340;2022-12-19T01:06:06;27.07;;;14.67;;
50066;SDS011;35952;52.524;13.340;2022-12-19T01:08:32;25.30;;;14.90;;
50066;SDS011;35952;52.524;13.340;2022-12-19T01:10:58;31.02;;;15.30;;
50066;SDS011;35952;52.524;13.340;2022-12-19T01:13:24;29.13;;;14.33;;
50066;SDS011;35952;52.524;13.340;2022-12-19T01:15:52;26.80;;;14.10;;
50066;SDS011;35952;52.524;13.340;2022-12-19T01:18:17;27.17;;;15.47;;
50066;SDS011;35952;52.524;13.340;2022-12-19T01:20:43;27.50;;;15.50;;
50066;SDS011;35952;52.524;13.340;2022-12-19T01:23:13;24.65;;;14.32;;
50066;SDS011;35952;52.524;13.340;2022-12-19T01:25:40;33.35;;;15.63;;
50066;SDS011;35952;52.524;13.340;2022-12-19T01:28:07;27.20;;;14.50;;
50066;SDS011;35952;52.524;13.340;2022-12-19T01:30:38;26.08;;;13.32;;
50066;SDS011;35952;52.524;13.340;2022-12-19T01:33:04;31.02;;;14.50;;
50066;SDS011;35952;52.524;13.340;2022-12-19T01:35:29;26.17;;;13.77;;
50066;SDS011;35952;52.524;13.340;2022-12-19T01:37:55;27.73;;;13.20;;
50066;SDS011;35952;52.524;13.340;2022-12-19T01:40:21;24.50;;;12.47;;
50066;SDS011;35952;52.524;13.340;2022-12-19T01:42:47;25.42;;;14.70;;
50066;SDS011;35952;52.524;13.340;2022-12-19T01:47:41;29.50;;;14.33;;
50066;SDS011;35952;52.524;13.340;2022-12-19T01:53:25;25.05;;;12.95;;
50066;SDS011;35952;52.524;13.340;2022-12-19T01:55:54;27.42;;;13.88;;
50066;SDS011;35952;52.524;13.340;2022-12-19T01:58:20;28.67;;;15.10;;
50066;SDS011;35952;52.524;13.340;2022-12-19T02:00:46;33.67;;;17.75;;
50066;SDS011;35952;52.524;13.340;2022-12-19T02:03:17;28.70;;;14.77;;
50066;SDS011;35952;52.524;13.340;2022-12-19T02:05:50;26.10;;;16.00;;
50066;SDS011;35952;52.524;13.340;2022-12-19T02:08:16;27.42;;;13.35;;
50066;SDS011;35952;52.524;13.340;2022-12-19T02:10:42;25.17;;;13.30;;
50066;SDS011;35952;52.524;13.340;2022-12-19T02:13:07;25.80;;;14.00;;
50066;SDS011;35952;52.524;13.340;2022-12-19T02:15:44;29.00;;;14.85;;
50066;SDS011;35952;52.524;13.340;2022-12-19T02:18:29;22.65;;;13.55;;
50066;SDS011;35952;52.524;13.340;2022-12-19T02:23:43;29.83;;;14.98;;
50066;SDS011;35952;52.524;13.340;2022-12-19T02:26:20;23.83;;;13.23;;
50066;SDS011;35952;52.524;13.340;2022-12-19T02:28:54;29.50;;;14.13;;
50066;SDS011;35952;52.524;13.340;2022-12-19T02:34:16;31.52;;;15.52;;
50066;SDS011;35952;52.524;13.340;2022-12-19T02:36:51;28.00;;;14.07;;
50066;SDS011;35952;52.524;13.340;2022-12-19T02:39:24;24.75;;;14.52;;
50066;SDS011;35952;52.524;13.340;2022-12-19T02:41:58;24.42;;;13.98;;
50066;SDS011;35952;52.524;13.340;2022-12-19T02:44:36;30.05;;;15.52;;
50066;SDS011;35952;52.524;13.340;2022-12-19T02:47:05;25.50;;;15.02;;
50066;SDS011;35952;52.524;13.340;2022-12-19T02:49:33;24.38;;;13.95;;
50066;SDS011;35952;52.524;13.340;2022-12-19T02:54:36;25.23;;;14.15;;
50066;SDS011;35952;52.524;13.340;2022-12-19T03:02:21;26.25;;;14.23;;
50066;SDS011;35952;52.524;13.340;2022-12-19T03:04:58;34.92;;;16.25;;
50066;SDS011;35952;52.524;13.340;2022-12-19T03:07:53;31.77;;;16.40;;
50066;SDS011;35952;52.524;13.340;2022-12-19T03:10:32;23.58;;;12.43;;
50066;SDS011;35952;52.524;13.340;2022-12-19T03:13:20;26.60;;;14.65;;
50066;SDS011;35952;52.524;13.340;2022-12-19T03:15:52;25.40;;;14.77;;
50066;SDS011;35952;52.524;13.340;2022-12-19T03:18:18;26.57;;;15.80;;
50066;SDS011;35952;52.524;13.340;2022-12-19T03:20:46;28.25;;;15.10;;
50066;SDS011;35952;52.524;13.340;2022-12-19T03:23:16;33.90;;;16.20;;
50066;SDS011;35952;52.524;13.340;2022-12-19T03:25:43;30.80;;;15.50;;
50066;SDS011;35952;52.524;13.340;2022-12-19T03:28:14;38.42;;;17.10;;
50066;SDS011;35952;52.524;13.340;2022-12-19T03:30:50;31.88;;;14.77;;
50066;SDS011;35952;52.524;13.340;2022-12-19T03:33:17;27.85;;;16.02;;
50066;SDS011;35952;52.524;13.340;2022-12-19T03:35:44;30.75;;;16.40;;
50066;SDS011;35952;52.524;13.340;2022-12-19T03:38:11;32.88;;;18.17;;
50066;SDS011;35952;52.524;13.340;2022-12-19T03:40:37;27.98;;;16.10;;
50066;SDS011;35952;52.524;13.340;2022-12-19T03:43:06;28.05;;;16.15;;
50066;SDS011;35952;52.524;13.340;2022-12-19T03:53:47;36.42;;;18.33;;
50066;SDS011;35952;52.524;13.340;2022-12-19T03:56:30;29.38;;;15.88;;
50066;SDS011;35952;52.524;13.340;2022-12-19T03:59:13;34.63;;;17.02;;
50066;SDS011;35952;52.524;13.340;2022-12-19T04:01:46;30.17;;;15.85;;
50066;SDS011;35952;52.524;13.340;2022-12-19T04:04:13;38.45;;;16.27;;
50066;SDS011;35952;52.524;13.340;2022-12-19T04:06:40;29.95;;;17.67;;
50066;SDS011;35952;52.524;13.340;2022-12-19T04:09:07;29.67;;;16.08;;
50066;SDS011;35952;52.524;13.340;2022-12-19T04:11:35;38.15;;;17.48;;
50066;SDS011;35952;52.524;13.340;2022-12-19T04:14:05;33.60;;;18.98;;
50066;SDS011;35952;52.524;13.340;2022-12-19T04:16:38;34.78;;;19.38;;
50066;SDS011;35952;52.524;13.340;2022-12-19T04:19:09;32.35;;;18.70;;
50066;SDS011;35952;52.524;13.340;2022-12-19T04:21:48;30.35;;;16.25;;
50066;SDS011;35952;52.524;13.340;2022-12-19T04:24:25;32.28;;;17.10;;
50066;SDS011;35952;52.524;13.340;2022-12-19T04:26:54;37.92;;;19.17;;
50066;SDS011;35952;52.524;13.340;2022-12-19T04:29:23;35.55;;;18.80;;
50066;SDS011;35952;52.524;13.340;2022-12-19T04:31:52;35.63;;;16.27;;
50066;SDS011;35952;52.524;13.340;2022-12-19T04:34:18;40.43;;;20.30;;
50066;SDS011;35952;52.524;13.340;2022-12-19T04:36:45;32.30;;;18.52;;
50066;SDS011;35952;52.524;13.340;2022-12-19T04:39:11;36.15;;;18.85;;
50066;SDS011;35952;52.524;13.340;2022-12-19T04:41:37;30.70;;;15.80;;
50066;SDS011;35952;52.524;13.340;2022-12-19T04:44:02;31.67;;;18.57;;
50066;SDS011;35952;52.524;13.340;2022-12-19T04:46:28;34.77;;;17.53;;
50066;SDS011;35952;52.524;13.340;2022-12-19T04:48:53;39.97;;;17.97;;
50066;SDS011;35952;52.524;13.340;2022-12-19T04:51:19;36.47;;;19.83;;
50066;SDS011;35952;52.524;13.340;2022-12-19T04:53:44;35.50;;;17.37;;
50066;SDS011;35952;52.524;13.340;2022-12-19T04:56:10;33.73;;;18.00;;
50066;SDS011;35952;52.524;13.340;2022-12-19T04:58:35;29.33;;;17.70;;
50066;SDS011;35952;52.524;13.340;2022-12-19T05:01:04;35.57;;;17.43;;
50066;SDS011;35952;52.524;13.340;2022-12-19T05:03:32;38.85;;;20.13;;
50066;SDS011;35952;52.524;13.340;2022-12-19T05:06:02;37.85;;;19.08;;
50066;SDS011;35952;52.524;13.340;2022-12-19T05:08:32;33.80;;;17.35;;
50066;SDS011;35952;52.524;13.340;2022-12-19T05:10:59;33.28;;;18.65;;
50066;SDS011;35952;52.524;13.340;2022-12-19T05:13:26;34.88;;;17.80;;
50066;SDS011;35952;52.524;13.340;2022-12-19T05:15:59;37.00;;;18.77;;
50066;SDS011;35952;52.524;13.340;2022-12-19T05:18:27;34.92;;;17.77;;
50066;SDS011;35952;52.524;13.340;2022-12-19T05:20:52;32.90;;;17.60;;
50066;SDS011;35952;52.524;13.340;2022-12-19T05:23:18;34.87;;;19.17;;
50066;SDS011;35952;52.524;13.340;2022-12-19T05:25:44;38.60;;;18.20;;
50066;SDS011;35952;52.524;13.340;2022-12-19T05:28:10;30.67;;;17.90;;
50066;SDS011;35952;52.524;13.340;2022-12-19T05:30:36;29.98;;;16.40;;
50066;SDS011;35952;52.524;13.340;2022-12-19T05:33:01;39.20;;;20.73;;
50066;SDS011;35952;52.524;13.340;2022-12-19T05:35:27;37.77;;;18.70;;
50066;SDS011;35952;52.524;13.340;2022-12-19T05:37:52;38.30;;;18.87;;
50066;SDS011;35952;52.524;13.340;2022-12-19T05:40:18;34.70;;;16.90;;
50066;SDS011;35952;52.524;13.340;2022-12-19T05:42:43;35.63;;;18.77;;
50066;SDS011;35952;52.524;13.340;2022-12-19T05:45:09;40.83;;;18.83;;
50066;SDS011;35952;52.524;13.340;2022-12-19T05:47:35;31.50;;;18.40;;
50066;SDS011;35952;52.524;13.340;2022-12-19T05:50:00;41.20;;;18.70;;
50066;SDS011;35952;52.524;13.340;2022-12-19T05:52:26;36.47;;;19.80;;
50066;SDS011;35952;52.524;13.340;2022-12-19T05:54:51;42.97;;;18.73;;
50066;SDS011;35952;52.524;13.340;2022-12-19T05:57:17;36.60;;;19.47;;
50066;SDS011;35952;52.524;13.340;2022-12-19T05:59:43;33.33;;;16.60;;
50066;SDS011;35952;52.524;13.340;2022-12-19T06:02:08;29.20;;;16.27;;
50066;SDS011;35952;52.524;13.340;2022-12-19T06:04:34;38.67;;;18.97;;
50066;SDS011;35952;52.524;13.340;2022-12-19T06:07:02;31.42;;;18.05;;
50066;SDS011;35952;52.524;13.340;2022-12-19T06:09:28;27.70;;;16.50;;
50066;SDS011;35952;52.524;13.340;2022-12-19T06:11:53;34.27;;;18.40;;
50066;SDS011;35952;52.524;13.340;2022-12-19T06:14:19;32.43;;;17.60;;
50066;SDS011;35952;52.524;13.340;2022-12-19T06:16:45;33.53;;;17.70;;
50066;SDS011;35952;52.524;13.340;2022-12-19T06:19:10;42.13;;;19.87;;
50066;SDS011;35952;52.524;13.340;2022-12-19T06:21:36;31.10;;;16.60;;
50066;SDS011;35952;52.524;13.340;2022-12-19T06:24:01;36.67;;;18.10;;
50066;SDS011;35952;52.524;13.340;2022-12-19T06:26:27;34.27;;;19.00;;
50066;SDS011;35952;52.524;13.340;2022-12-19T06:28:53;33.95;;;16.27;;
50066;SDS011;35952;52.524;13.340;2022-12-19T06:31:20;35.10;;;19.40;;
50066;SDS011;35952;52.524;13.340;2022-12-19T06:33:46;34.47;;;18.73;;
50066;SDS011;35952;52.524;13.340;2022-12-19T06:38:45;34.30;;;18.55;;
50066;SDS011;35952;52.524;13.340;2022-12-19T06:41:11;33.95;;;18.38;;
50066;SDS011;35952;52.524;13.340;2022-12-19T06:43:56;35.00;;;19.35;;
50066;SDS011;35952;52.524;13.340;2022-12-19T06:46:26;34.60;;;17.25;;
50066;SDS011;35952;52.524;13.340;2022-12-19T06:48:52;34.13;;;16.87;;
50066;SDS011;35952;52.524;13.340;2022-12-19T06:51:18;36.10;;;18.95;;
50066;SDS011;35952;52.524;13.340;2022-12-19T06:53:44;28.43;;;16.00;;
50066;SDS011;35952;52.524;13.340;2022-12-19T06:56:10;37.23;;;19.63;;
50066;SDS011;35952;52.524;13.340;2022-12-19T06:58:37;34.22;;;17.00;;
50066;SDS011;35952;52.524;13.340;2022-12-19T07:01:03;33.57;;;15.97;;
50066;SDS011;35952;52.524;13.340;2022-12-19T07:03:34;33.60;;;16.80;;
50066;SDS011;35952;52.524;13.340;2022-12-19T07:06:04;27.98;;;15.63;;
50066;SDS011;35952;52.524;13.340;2022-12-19T07:08:30;27.98;;;16.77;;
50066;SDS011;35952;52.524;13.340;2022-12-19T07:10:57;35.63;;;16.77;;
50066;SDS011;35952;52.524;13.340;2022-12-19T07:13:23;32.53;;;17.33;;
50066;SDS011;35952;52.524;13.340;2022-12-19T07:15:49;34.70;;;19.00;;
50066;SDS011;35952;52.524;13.340;2022-12-19T07:18:16;42.70;;;18.05;;
50066;SDS011;35952;52.524;13.340;2022-12-19T07:20:42;33.22;;;15.63;;
50066;SDS011;35952;52.524;13.340;2022-12-19T07:23:10;33.67;;;17.67;;
50066;SDS011;35952;52.524;13.340;2022-12-19T07:25:40;32.75;;;17.48;;
50066;SDS011;35952;52.524;13.340;2022-12-19T07:28:06;33.38;;;17.75;;
50066;SDS011;35952;52.524;13.340;2022-12-19T07:30:32;30.98;;;15.90;;
50066;SDS011;35952;52.524;13.340;2022-12-19T07:32:58;25.63;;;15.33;;
50066;SDS011;35952;52.524;13.340;2022-12-19T07:35:23;32.00;;;17.60;;
50066;SDS011;35952;52.524;13.340;2022-12-19T07:37:49;41.80;;;17.00;;
50066;SDS011;35952;52.524;13.340;2022-12-19T07:40:15;32.37;;;18.07;;
50066;SDS011;35952;52.524;13.340;2022-12-19T07:42:41;33.20;;;16.17;;
50066;SDS011;35952;52.524;13.340;2022-12-19T07:45:07;30.20;;;15.30;;
50066;SDS011;35952;52.524;13.340;2022-12-19T07:47:33;27.10;;;15.20;;
50066;SDS011;35952;52.524;13.340;2022-12-19T07:49:59;32.37;;;17.00;;
50066;SDS011;35952;52.524;13.340;2022-12-19T07:52:25;32.17;;;16.10;;
50066;SDS011;35952;52.524;13.340;2022-12-19T07:54:51;27.30;;;16.27;;
50066;SDS011;35952;52.524;13.340;2022-12-19T07:57:16;31.93;;;16.73;;
50066;SDS011;35952;52.524;13.340;2022-12-19T07:59:42;30.80;;;17.20;;
50066;SDS011;35952;52.524;13.340;2022-12-19T08:02:07;27.63;;;16.00;;
50066;SDS011;35952;52.524;13.340;2022-12-19T08:04:33;30.43;;;15.80;;
50066;SDS011;35952;52.524;13.340;2022-12-19T08:06:58;29.00;;;15.67;;
50066;SDS011;35952;52.524;13.340;2022-12-19T08:09:24;27.60;;;15.57;;
50066;SDS011;35952;52.524;13.340;2022-12-19T08:11:52;28.77;;;16.20;;
50066;SDS011;35952;52.524;13.340;2022-12-19T08:14:18;30.23;;;15.50;;
50066;SDS011;35952;52.524;13.340;2022-12-19T08:16:43;33.30;;;14.80;;
50066;SDS011;35952;52.524;13.340;2022-12-19T08:19:09;31.57;;;18.40;;
50066;SDS011;35952;52.524;13.340;2022-12-19T08:21:35;29.70;;;15.87;;
50066;SDS011;35952;52.524;13.340;2022-12-19T08:24:00;28.30;;;15.53;;
50066;SDS011;35952;52.524;13.340;2022-12-19T08:26:26;31.07;;;15.23;;
50066;SDS011;35952;52.524;13.340;2022-12-19T08:28:52;28.67;;;15.03;;
50066;SDS011;35952;52.524;13.340;2022-12-19T08:31:19;31.58;;;14.80;;
50066;SDS011;35952;52.524;13.340;2022-12-19T08:33:49;31.02;;;15.35;;
50066;SDS011;35952;52.524;13.340;2022-12-19T08:36:15;29.23;;;15.57;;
50066;SDS011;35952;52.524;13.340;2022-12-19T08:38:43;29.65;;;15.15;;
50066;SDS011;35952;52.524;13.340;2022-12-19T08:41:08;29.77;;;16.57;;
50066;SDS011;35952;52.524;13.340;2022-12-19T08:43:35;30.27;;;16.55;;
50066;SDS011;35952;52.524;13.340;2022-12-19T08:46:00;30.60;;;16.10;;
50066;SDS011;35952;52.524;13.340;2022-12-19T08:48:26;22.70;;;15.60;;
50066;SDS011;35952;52.524;13.340;2022-12-19T08:50:52;27.60;;;15.17;;
50066;SDS011;35952;52.524;13.340;2022-12-19T08:53:23;34.92;;;16.77;;
50066;SDS011;35952;52.524;13.340;2022-12-19T08:55:53;32.58;;;16.48;;
50066;SDS011;35952;52.524;13.340;2022-12-19T08:58:21;29.77;;;15.90;;
50066;SDS011;35952;52.524;13.340;2022-12-19T09:00:50;25.65;;;15.05;;
50066;SDS011;35952;52.524;13.340;2022-12-19T09:03:20;29.70;;;14.55;;
50066;SDS011;35952;52.524;13.340;2022-12-19T09:05:59;28.92;;;16.85;;
50066;SDS011;35952;52.524;13.340;2022-12-19T09:08:28;26.85;;;14.40;;
50066;SDS011;35952;52.524;13.340;2022-12-19T09:10:57;25.70;;;15.95;;
50066;SDS011;35952;52.524;13.340;2022-12-19T09:13:23;31.70;;;16.90;;
50066;SDS011;35952;52.524;13.340;2022-12-19T09:15:50;28.50;;;15.15;;
50066;SDS011;35952;52.524;13.340;2022-12-19T09:18:28;26.25;;;14.98;;
50066;SDS011;35952;52.524;13.340;2022-12-19T09:20:55;30.38;;;14.07;;
50066;SDS011;35952;52.524;13.340;2022-12-19T09:23:22;30.58;;;16.15;;
50066;SDS011;35952;52.524;13.340;2022-12-19T09:25:51;28.15;;;14.02;;
50066;SDS011;35952;52.524;13.340;2022-12-19T09:28:19;25.30;;;15.88;;
50066;SDS011;35952;52.524;13.340;2022-12-19T09:30:45;26.83;;;15.77;;
50066;SDS011;35952;52.524;13.340;2022-12-19T09:33:18;26.00;;;14.73;;
50066;SDS011;35952;52.524;13.340;2022-12-19T09:35:50;35.53;;;16.77;;
50066;SDS011;35952;52.524;13.340;2022-12-19T09:38:17;32.22;;;16.55;;
50066;SDS011;35952;52.524;13.340;2022-12-19T09:49:26;34.03;;;16.13;;
50066;SDS011;35952;52.524;13.340;2022-12-19T09:57:38;31.98;;;16.67;;
50066;SDS011;35952;52.524;13.340;2022-12-19T10:00:44;29.67;;;14.82;;
50066;SDS011;35952;52.524;13.340;2022-12-19T10:03:19;30.65;;;16.88;;
50066;SDS011;35952;52.524;13.340;2022-12-19T10:05:50;29.85;;;15.13;;
50066;SDS011;35952;52.524;13.340;2022-12-19T10:08:32;27.75;;;13.73;;
50066;SDS011;35952;52.524;13.340;2022-12-19T10:11:07;30.13;;;16.30;;
50066;SDS011;35952;52.524;13.340;2022-12-19T10:16:13;26.33;;;14.97;;
50066;SDS011;35952;52.524;13.340;2022-12-19T10:18:54;34.45;;;16.38;;
50066;SDS011;35952;52.524;13.340;2022-12-19T10:23:58;22.88;;;12.77;;
50066;SDS011;35952;52.524;13.340;2022-12-19T10:29:11;29.48;;;16.75;;
50066;SDS011;35952;52.524;13.340;2022-12-19T10:31:56;30.08;;;15.98;;
50066;SDS011;35952;52.524;13.340;2022-12-19T10:34:35;29.85;;;15.90;;
50066;SDS011;35952;52.524;13.340;2022-12-19T10:37:21;28.85;;;16.23;;
50066;SDS011;35952;52.524;13.340;2022-12-19T10:40:02;26.92;;;14.95;;
50066;SDS011;35952;52.524;13.340;2022-12-19T10:42:52;24.77;;;15.35;;
50066;SDS011;35952;52.524;13.340;2022-12-19T10:45:27;28.33;;;16.15;;
50066;SDS011;35952;52.524;13.340;2022-12-19T10:47:58;27.83;;;16.17;;
50066;SDS011;35952;52.524;13.340;2022-12-19T10:50:26;27.77;;;16.92;;
50066;SDS011;35952;52.524;13.340;2022-12-19T11:01:03;27.13;;;17.08;;
50066;SDS011;35952;52.524;13.340;2022-12-19T11:03:43;30.30;;;14.35;;
50066;SDS011;35952;52.524;13.340;2022-12-19T11:09:19;30.42;;;16.42;;
50066;SDS011;35952;52.524;13.340;2022-12-19T11:11:54;30.77;;;16.17;;
50066;SDS011;35952;52.524;13.340;2022-12-19T11:14:27;27.67;;;15.10;;
50066;SDS011;35952;52.524;13.340;2022-12-19T11:16:54;25.48;;;14.80;;
50066;SDS011;35952;52.524;13.340;2022-12-19T11:24:48;30.85;;;16.70;;
50066;SDS011;35952;52.524;13.340;2022-12-19T11:28:02;30.55;;;15.85;;
50066;SDS011;35952;52.524;13.340;2022-12-19T11:30:00;31.50;;;16.48;;
50066;SDS011;35952;52.524;13.340;2022-12-19T11:32:40;29.05;;;16.10;;
50066;SDS011;35952;52.524;13.340;2022-12-19T11:37:54;23.23;;;13.82;;
50066;SDS011;35952;52.524;13.340;2022-12-19T11:43:31;24.08;;;14.68;;
50066;SDS011;35952;52.524;13.340;2022-12-19T11:52:02;41.42;;;19.35;;
50066;SDS011;35952;52.524;13.340;2022-12-19T11:57:27;33.95;;;18.50;;
50066;SDS011;35952;52.524;13.340;2022-12-19T11:59:53;35.77;;;18.60;;
50066;SDS011;35952;52.524;13.340;2022-12-19T12:07:33;37.28;;;19.10;;
50066;SDS011;35952;52.524;13.340;2022-12-19T12:10:13;33.13;;;19.35;;
50066;SDS011;35952;52.524;13.340;2022-12-19T12:18:14;35.85;;;18.45;;
50066;SDS011;35952;52.524;13.340;2022-12-19T12:23:32;34.55;;;18.52;;
50066;SDS011;35952;52.524;13.340;2022-12-19T12:26:30;28.33;;;17.30;;
50066;SDS011;35952;52.524;13.340;2022-12-19T12:29:10;33.60;;;17.17;;
50066;SDS011;35952;52.524;13.340;2022-12-19T12:42:44;35.03;;;18.25;;
50066;SDS011;35952;52.524;13.340;2022-12-19T12:45:34;42.42;;;19.80;;
50066;SDS011;35952;52.524;13.340;2022-12-19T12:48:02;36.95;;;19.13;;
50066;SDS011;35952;52.524;13.340;2022-12-19T12:50:42;38.95;;;19.77;;
50066;SDS011;35952;52.524;13.340;2022-12-19T12:53:11;37.25;;;19.92;;
50066;SDS011;35952;52.524;13.340;2022-12-19T12:55:41;40.65;;;21.83;;
50066;SDS011;35952;52.524;13.340;2022-12-19T13:03:55;40.13;;;20.92;;
50066;SDS011;35952;52.524;13.340;2022-12-19T13:17:07;34.65;;;18.90;;
50066;SDS011;35952;52.524;13.340;2022-12-19T13:19:35;48.67;;;23.80;;
50066;SDS011;35952;52.524;13.340;2022-12-19T13:22:19;49.40;;;21.27;;
50066;SDS011;35952;52.524;13.340;2022-12-19T13:24:52;38.92;;;20.00;;
50066;SDS011;35952;52.524;13.340;2022-12-19T13:37:45;50.28;;;24.67;;
50066;SDS011;35952;52.524;13.340;2022-12-19T13:43:34;50.63;;;22.35;;
50066;SDS011;35952;52.524;13.340;2022-12-19T13:46:31;48.03;;;24.98;;
50066;SDS011;35952;52.524;13.340;2022-12-19T13:52:18;46.97;;;22.67;;
50066;SDS011;35952;52.524;13.340;2022-12-19T13:54:48;45.60;;;22.30;;
50066;SDS011;35952;52.524;13.340;2022-12-19T13:57:23;43.13;;;22.55;;
50066;SDS011;35952;52.524;13.340;2022-12-19T13:59:51;57.58;;;24.38;;
50066;SDS011;35952;52.524;13.340;2022-12-19T14:02:39;49.13;;;23.92;;
50066;SDS011;35952;52.524;13.340;2022-12-19T14:07:57;45.05;;;23.05;;
50066;SDS011;35952;52.524;13.340;2022-12-19T14:10:27;41.83;;;24.05;;
50066;SDS011;35952;52.524;13.340;2022-12-19T14:12:56;49.60;;;24.25;;
50066;SDS011;35952;52.524;13.340;2022-12-19T14:15:45;44.40;;;24.40;;
50066;SDS011;35952;52.524;13.340;2022-12-19T14:18:28;51.08;;;24.67;;
50066;SDS011;35952;52.524;13.340;2022-12-19T14:23:36;41.38;;;23.15;;
50066;SDS011;35952;52.524;13.340;2022-12-19T14:26:02;41.97;;;23.95;;
50066;SDS011;35952;52.524;13.340;2022-12-19T14:28:40;41.95;;;24.02;;
50066;SDS011;35952;52.524;13.340;2022-12-19T14:31:10;50.10;;;25.17;;
50066;SDS011;35952;52.524;13.340;2022-12-19T14:33:46;67.20;;;27.27;;
50066;SDS011;35952;52.524;13.340;2022-12-19T14:36:21;62.70;;;25.95;;
50066;SDS011;35952;52.524;13.340;2022-12-19T14:38:50;61.13;;;28.73;;
50066;SDS011;35952;52.524;13.340;2022-12-19T14:41:39;60.80;;;28.43;;
50066;SDS011;35952;52.524;13.340;2022-12-19T14:44:23;48.75;;;27.02;;
50066;SDS011;35952;52.524;13.340;2022-12-19T14:47:23;57.80;;;27.17;;
50066;SDS011;35952;52.524;13.340;2022-12-19T14:49:58;51.90;;;24.80;;
50066;SDS011;35952;52.524;13.340;2022-12-19T14:52:31;59.80;;;27.45;;
50066;SDS011;35952;52.524;13.340;2022-12-19T14:55:14;63.35;;;27.63;;
50066;SDS011;35952;52.524;13.340;2022-12-19T14:57:46;62.80;;;26.55;;
50066;SDS011;35952;52.524;13.340;2022-12-19T15:00:23;58.90;;;29.05;;
50066;SDS011;35952;52.524;13.340;2022-12-19T15:02:53;54.75;;;27.45;;
50066;SDS011;35952;52.524;13.340;2022-12-19T15:05:21;55.15;;;27.33;;
50066;SDS011;35952;52.524;13.340;2022-12-19T15:07:48;64.17;;;30.97;;
50066;SDS011;35952;52.524;13.340;2022-12-19T15:10:17;72.05;;;31.15;;
50066;SDS011;35952;52.524;13.340;2022-12-19T15:12:49;68.80;;;28.20;;
50066;SDS011;35952;52.524;13.340;2022-12-19T15:15:38;53.78;;;28.92;;
50066;SDS011;35952;52.524;13.340;2022-12-19T15:18:19;75.38;;;30.48;;
50066;SDS011;35952;52.524;13.340;2022-12-19T15:20:48;66.25;;;28.60;;
50066;SDS011;35952;52.524;13.340;2022-12-19T15:23:15;61.63;;;28.50;;
50066;SDS011;35952;52.524;13.340;2022-12-19T15:25:41;68.75;;;29.65;;
50066;SDS011;35952;52.524;13.340;2022-12-19T15:28:16;62.70;;;27.77;;
50066;SDS011;35952;52.524;13.340;2022-12-19T15:30:45;60.85;;;27.88;;
50066;SDS011;35952;52.524;13.340;2022-12-19T15:33:18;58.50;;;28.92;;
50066;SDS011;35952;52.524;13.340;2022-12-19T15:35:43;70.77;;;30.30;;
50066;SDS011;35952;52.524;13.340;2022-12-19T15:38:09;57.03;;;27.77;;
50066;SDS011;35952;52.524;13.340;2022-12-19T15:40:35;74.93;;;30.60;;
50066;SDS011;35952;52.524;13.340;2022-12-19T15:43:01;55.92;;;28.80;;
50066;SDS011;35952;52.524;13.340;2022-12-19T15:45:28;53.92;;;27.85;;
50066;SDS011;35952;52.524;13.340;2022-12-19T15:47:55;59.03;;;30.40;;
50066;SDS011;35952;52.524;13.340;2022-12-19T15:52:47;57.88;;;29.90;;
50066;SDS011;35952;52.524;13.340;2022-12-19T15:55:19;67.50;;;29.25;;
50066;SDS011;35952;52.524;13.340;2022-12-19T15:57:51;62.45;;;31.67;;
50066;SDS011;35952;52.524;13.340;2022-12-19T16:00:21;63.67;;;28.65;;
50066;SDS011;35952;52.524;13.340;2022-12-19T16:02:49;69.43;;;30.98;;
50066;SDS011;35952;52.524;13.340;2022-12-19T16:05:16;68.38;;;30.83;;
50066;SDS011;35952;52.524;13.340;2022-12-19T16:07:43;64.07;;;31.48;;
50066;SDS011;35952;52.524;13.340;2022-12-19T16:10:09;58.20;;;30.60;;
50066;SDS011;35952;52.524;13.340;2022-12-19T16:12:37;60.65;;;28.10;;
50066;SDS011;35952;52.524;13.340;2022-12-19T16:15:31;67.95;;;29.33;;
50066;SDS011;35952;52.524;13.340;2022-12-19T16:18:01;55.80;;;29.70;;
50066;SDS011;35952;52.524;13.340;2022-12-19T16:20:31;65.57;;;32.10;;
50066;SDS011;35952;52.524;13.340;2022-12-19T16:23:03;60.13;;;27.73;;
50066;SDS011;35952;52.524;13.340;2022-12-19T16:25:42;65.37;;;32.30;;
50066;SDS011;35952;52.524;13.340;2022-12-19T16:28:15;56.55;;;29.02;;
50066;SDS011;35952;52.524;13.340;2022-12-19T16:30:50;46.25;;;26.10;;
50066;SDS011;35952;52.524;13.340;2022-12-19T16:33:21;53.72;;;25.33;;
50066;SDS011;35952;52.524;13.340;2022-12-19T16:35:50;46.33;;;23.38;;
50066;SDS011;35952;52.524;13.340;2022-12-19T16:38:16;49.15;;;27.98;;
50066;SDS011;35952;52.524;13.340;2022-12-19T16:40:42;61.05;;;30.27;;
50066;SDS011;35952;52.524;13.340;2022-12-19T16:43:21;46.70;;;26.02;;
50066;SDS011;35952;52.524;13.340;2022-12-19T16:46:03;46.60;;;27.95;;
50066;SDS011;35952;52.524;13.340;2022-12-19T16:48:30;44.42;;;25.88;;
50066;SDS011;35952;52.524;13.340;2022-12-19T16:50:58;46.78;;;24.48;;
50066;SDS011;35952;52.524;13.340;2022-12-19T16:53:24;42.78;;;25.40;;
50066;SDS011;35952;52.524;13.340;2022-12-19T16:55:49;50.70;;;25.10;;
50066;SDS011;35952;52.524;13.340;2022-12-19T16:58:18;49.40;;;26.67;;